sensor_id;sensor_type;location;lat;lon;timestamp;P1;durP1;ratioP1;P2;durP2;ratioP2
26620;SDS011;14253;44.840;10.444;2023-05-29T00:01:15;25.30;;;17.45;;
26620;SDS011;14253;44.840;10.444;2023-05-29T00:03:44;22.95;;;17.70;;
26620;SDS011;14253;44.840;10.444;2023-05-29T00:06:10;24.20;;;17.45;;
26620;SDS011;14253;44.840;10.444;2023-05-29T00:08:36;21.15;;;17.17;;
26620;SDS011;14253;44.840;10.444;2023-05-29T00:11:02;22.17;;;17.38;;
26620;SDS011;14253;44.840;10.444;2023-05-29T00:13:28;22.20;;;17.27;;
26620;SDS011;14253;44.840;10.444;2023-05-29T00:15:54;22.95;;;17.00;;
26620;SDS011;14253;44.840;10.444;2023-05-29T00:18:20;26.50;;;18.10;;
26620;SDS011;14253;44.840;10.444;2023-05-29T00:20:46;26.30;;;18.92;;
26620;SDS011;14253;44.840;10.444;2023-05-29T00:23:12;28.05;;;18.73;;
26620;SDS011;14253;44.840;10.444;2023-05-29T00:25:38;25.65;;;19.45;;
26620;SDS011;14253;44.840;10.444;2023-05-29T00:28:07;25.75;;;18.98;;
26620;SDS011;14253;44.840;10.444;2023-05-29T00:30:35;25.38;;;18.63;;
26620;SDS011;14253;44.840;10.444;2023-05-29T00:33:00;31.48;;;19.17;;
26620;SDS011;14253;44.840;10.444;2023-05-29T00:35:28;30.25;;;20.88;;
26620;SDS011;14253;44.840;10.444;2023-05-29T00:37:53;26.73;;;20.95;;
26620;SDS011;14253;44.840;10.444;2023-05-29T00:40:19;26.10;;;20.67;;
26620;SDS011;14253;44.840;10.444;2023-05-29T00:42:45;27.67;;;18.40;;
26620;SDS011;14253;44.840;10.444;2023-05-29T00:45:11;27.50;;;19.73;;
26620;SDS011;14253;44.840;10.444;2023-05-29T00:47:40;30.65;;;20.73;;
26620;SDS011;14253;44.840;10.444;2023-05-29T00:50:08;27.85;;;19.67;;
26620;SDS011;14253;44.840;10.444;2023-05-29T00:52:36;27.25;;;20.20;;
26620;SDS011;14253;44.840;10.444;2023-05-29T00:55:03;26.35;;;19.35;;
26620;SDS011;14253;44.840;10.444;2023-05-29T00:57:30;26.48;;;19.65;;
26620;SDS011;14253;44.840;10.444;2023-05-29T00:59:57;29.58;;;20.30;;
26620;SDS011;14253;44.840;10.444;2023-05-29T01:02:25;28.85;;;20.77;;
26620;SDS011;14253;44.840;10.444;2023-05-29T01:04:54;27.83;;;20.80;;
26620;SDS011;14253;44.840;10.444;2023-05-29T01:07:22;30.90;;;21.35;;
26620;SDS011;14253;44.840;10.444;2023-05-29T01:09:48;27.85;;;20.83;;
26620;SDS011;14253;44.840;10.444;2023-05-29T01:12:31;25.67;;;19.67;;
26620;SDS011;14253;44.840;10.444;2023-05-29T01:15:01;27.90;;;19.85;;
26620;SDS011;14253;44.840;10.444;2023-05-29T01:20:01;28.88;;;20.30;;
26620;SDS011;14253;44.840;10.444;2023-05-29T01:22:58;27.83;;;20.35;;
26620;SDS011;14253;44.840;10.444;2023-05-29T01:26:01;27.27;;;19.13;;
26620;SDS011;14253;44.840;10.444;2023-05-29T01:29:03;25.83;;;19.67;;
26620;SDS011;14253;44.840;10.444;2023-05-29T01:31:32;30.05;;;19.40;;
26620;SDS011;14253;44.840;10.444;2023-05-29T01:34:00;28.15;;;19.75;;
26620;SDS011;14253;44.840;10.444;2023-05-29T01:36:27;31.60;;;19.67;;
26620;SDS011;14253;44.840;10.444;2023-05-29T01:38:54;27.77;;;19.08;;
26620;SDS011;14253;44.840;10.444;2023-05-29T01:41:23;29.92;;;21.10;;
26620;SDS011;14253;44.840;10.444;2023-05-29T01:43:51;27.98;;;20.35;;
26620;SDS011;14253;44.840;10.444;2023-05-29T01:46:17;28.25;;;19.95;;
26620;SDS011;14253;44.840;10.444;2023-05-29T01:48:45;30.27;;;19.40;;
26620;SDS011;14253;44.840;10.444;2023-05-29T01:51:11;25.35;;;19.75;;
26620;SDS011;14253;44.840;10.444;2023-05-29T01:53:38;25.55;;;18.10;;
26620;SDS011;14253;44.840;10.444;2023-05-29T01:56:05;24.38;;;17.15;;
26620;SDS011;14253;44.840;10.444;2023-05-29T01:58:32;28.92;;;19.85;;
26620;SDS011;14253;44.840;10.444;2023-05-29T02:01:02;26.30;;;18.90;;
26620;SDS011;14253;44.840;10.444;2023-05-29T02:03:31;24.70;;;17.35;;
26620;SDS011;14253;44.840;10.444;2023-05-29T02:05:58;28.40;;;21.95;;
26620;SDS011;14253;44.840;10.444;2023-05-29T02:08:24;27.50;;;20.45;;
26620;SDS011;14253;44.840;10.444;2023-05-29T02:10:50;28.08;;;20.10;;
26620;SDS011;14253;44.840;10.444;2023-05-29T02:13:16;27.55;;;19.27;;
26620;SDS011;14253;44.840;10.444;2023-05-29T02:15:43;28.98;;;20.90;;
26620;SDS011;14253;44.840;10.444;2023-05-29T02:18:10;29.08;;;19.90;;
26620;SDS011;14253;44.840;10.444;2023-05-29T02:20:37;29.45;;;18.60;;
26620;SDS011;14253;44.840;10.444;2023-05-29T02:23:04;24.05;;;17.92;;
26620;SDS011;14253;44.840;10.444;2023-05-29T02:25:30;25.60;;;17.98;;
26620;SDS011;14253;44.840;10.444;2023-05-29T02:27:58;25.65;;;19.08;;
26620;SDS011;14253;44.840;10.444;2023-05-29T02:30:24;25.35;;;19.15;;
26620;SDS011;14253;44.840;10.444;2023-05-29T02:32:50;25.25;;;17.65;;
26620;SDS011;14253;44.840;10.444;2023-05-29T02:35:16;29.15;;;21.70;;
26620;SDS011;14253;44.840;10.444;2023-05-29T02:37:46;24.13;;;17.95;;
26620;SDS011;14253;44.840;10.444;2023-05-29T02:40:14;29.52;;;18.77;;
26620;SDS011;14253;44.840;10.444;2023-05-29T02:42:41;29.35;;;20.52;;
26620;SDS011;14253;44.840;10.444;2023-05-29T02:45:07;31.15;;;20.83;;
26620;SDS011;14253;44.840;10.444;2023-05-29T02:47:33;24.25;;;18.45;;
26620;SDS011;14253;44.840;10.444;2023-05-29T02:49:59;29.80;;;20.48;;
26620;SDS011;14253;44.840;10.444;2023-05-29T02:52:25;30.35;;;20.42;;
26620;SDS011;14253;44.840;10.444;2023-05-29T02:54:52;28.55;;;19.48;;
26620;SDS011;14253;44.840;10.444;2023-05-29T02:57:19;27.88;;;19.90;;
26620;SDS011;14253;44.840;10.444;2023-05-29T02:59:46;26.17;;;19.52;;
26620;SDS011;14253;44.840;10.444;2023-05-29T03:02:12;31.33;;;20.42;;
26620;SDS011;14253;44.840;10.444;2023-05-29T03:04:38;29.90;;;20.92;;
26620;SDS011;14253;44.840;10.444;2023-05-29T03:07:05;30.85;;;21.50;;
26620;SDS011;14253;44.840;10.444;2023-05-29T03:09:32;29.13;;;21.88;;
26620;SDS011;14253;44.840;10.444;2023-05-29T03:11:58;31.40;;;20.85;;
26620;SDS011;14253;44.840;10.444;2023-05-29T03:14:27;27.58;;;20.52;;
26620;SDS011;14253;44.840;10.444;2023-05-29T03:16:54;28.15;;;21.42;;
26620;SDS011;14253;44.840;10.444;2023-05-29T03:19:20;27.42;;;19.95;;
26620;SDS011;14253;44.840;10.444;2023-05-29T03:21:46;28.65;;;20.73;;
26620;SDS011;14253;44.840;10.444;2023-05-29T03:24:12;30.17;;;23.65;;
26620;SDS011;14253;44.840;10.444;2023-05-29T03:26:39;28.70;;;21.25;;
26620;SDS011;14253;44.840;10.444;2023-05-29T03:29:10;28.15;;;20.90;;
26620;SDS011;14253;44.840;10.444;2023-05-29T03:31:59;29.40;;;20.02;;
26620;SDS011;14253;44.840;10.444;2023-05-29T03:34:49;27.52;;;20.25;;
26620;SDS011;14253;44.840;10.444;2023-05-29T03:37:33;31.35;;;20.88;;
26620;SDS011;14253;44.840;10.444;2023-05-29T03:40:14;24.77;;;19.30;;
26620;SDS011;14253;44.840;10.444;2023-05-29T03:42:41;29.90;;;20.02;;
26620;SDS011;14253;44.840;10.444;2023-05-29T03:45:08;24.95;;;18.85;;
26620;SDS011;14253;44.840;10.444;2023-05-29T03:47:37;26.65;;;19.00;;
26620;SDS011;14253;44.840;10.444;2023-05-29T03:50:04;27.70;;;18.45;;
26620;SDS011;14253;44.840;10.444;2023-05-29T03:52:34;29.98;;;19.20;;
26620;SDS011;14253;44.840;10.444;2023-05-29T03:55:01;23.40;;;18.38;;
26620;SDS011;14253;44.840;10.444;2023-05-29T03:57:27;23.25;;;17.25;;
26620;SDS011;14253;44.840;10.444;2023-05-29T03:59:53;26.73;;;18.88;;
26620;SDS011;14253;44.840;10.444;2023-05-29T04:02:21;26.48;;;19.88;;
26620;SDS011;14253;44.840;10.444;2023-05-29T04:04:47;30.48;;;22.45;;
26620;SDS011;14253;44.840;10.444;2023-05-29T04:07:14;32.75;;;22.95;;
26620;SDS011;14253;44.840;10.444;2023-05-29T04:09:42;35.88;;;24.65;;
26620;SDS011;14253;44.840;10.444;2023-05-29T04:12:08;31.73;;;23.38;;
26620;SDS011;14253;44.840;10.444;2023-05-29T04:14:34;33.42;;;22.27;;
26620;SDS011;14253;44.840;10.444;2023-05-29T04:17:00;36.75;;;24.25;;
26620;SDS011;14253;44.840;10.444;2023-05-29T04:19:26;32.50;;;21.60;;
26620;SDS011;14253;44.840;10.444;2023-05-29T04:21:52;29.52;;;21.92;;
26620;SDS011;14253;44.840;10.444;2023-05-29T04:24:18;32.22;;;24.58;;
26620;SDS011;14253;44.840;10.444;2023-05-29T04:26:44;35.58;;;25.52;;
26620;SDS011;14253;44.840;10.444;2023-05-29T04:29:11;33.50;;;24.73;;
26620;SDS011;14253;44.840;10.444;2023-05-29T04:31:39;30.88;;;22.88;;
26620;SDS011;14253;44.840;10.444;2023-05-29T04:34:05;37.10;;;25.13;;
26620;SDS011;14253;44.840;10.444;2023-05-29T04:36:31;35.80;;;25.17;;
26620;SDS011;14253;44.840;10.444;2023-05-29T04:39:06;32.70;;;23.05;;
26620;SDS011;14253;44.840;10.444;2023-05-29T04:41:33;30.67;;;21.10;;
26620;SDS011;14253;44.840;10.444;2023-05-29T04:44:04;30.17;;;21.83;;
26620;SDS011;14253;44.840;10.444;2023-05-29T04:46:40;34.88;;;22.55;;
26620;SDS011;14253;44.840;10.444;2023-05-29T04:49:10;28.67;;;21.75;;
26620;SDS011;14253;44.840;10.444;2023-05-29T04:51:38;33.92;;;22.27;;
26620;SDS011;14253;44.840;10.444;2023-05-29T04:54:07;33.75;;;22.38;;
26620;SDS011;14253;44.840;10.444;2023-05-29T04:56:38;34.37;;;22.10;;
26620;SDS011;14253;44.840;10.444;2023-05-29T04:59:07;34.15;;;20.85;;
26620;SDS011;14253;44.840;10.444;2023-05-29T05:01:33;34.50;;;22.48;;
26620;SDS011;14253;44.840;10.444;2023-05-29T05:03:59;32.88;;;22.25;;
26620;SDS011;14253;44.840;10.444;2023-05-29T05:06:29;34.13;;;22.70;;
26620;SDS011;14253;44.840;10.444;2023-05-29T05:09:06;30.80;;;21.55;;
26620;SDS011;14253;44.840;10.444;2023-05-29T05:11:32;29.13;;;21.10;;
26620;SDS011;14253;44.840;10.444;2023-05-29T05:13:58;35.97;;;22.67;;
26620;SDS011;14253;44.840;10.444;2023-05-29T05:16:26;33.85;;;22.40;;
26620;SDS011;14253;44.840;10.444;2023-05-29T05:18:52;39.25;;;22.60;;
26620;SDS011;14253;44.840;10.444;2023-05-29T05:21:17;33.03;;;21.95;;
26620;SDS011;14253;44.840;10.444;2023-05-29T05:23:45;31.83;;;21.98;;
26620;SDS011;14253;44.840;10.444;2023-05-29T05:26:12;39.45;;;22.92;;
26620;SDS011;14253;44.840;10.444;2023-05-29T05:28:38;34.30;;;22.60;;
26620;SDS011;14253;44.840;10.444;2023-05-29T05:31:04;32.13;;;23.42;;
26620;SDS011;14253;44.840;10.444;2023-05-29T05:33:32;42.25;;;23.00;;
26620;SDS011;14253;44.840;10.444;2023-05-29T05:35:58;33.25;;;23.38;;
26620;SDS011;14253;44.840;10.444;2023-05-29T05:38:24;36.88;;;23.48;;
26620;SDS011;14253;44.840;10.444;2023-05-29T05:40:50;33.03;;;22.50;;
26620;SDS011;14253;44.840;10.444;2023-05-29T05:43:23;33.22;;;22.17;;
26620;SDS011;14253;44.840;10.444;2023-05-29T05:46:21;28.33;;;20.95;;
26620;SDS011;14253;44.840;10.444;2023-05-29T05:48:47;35.38;;;21.83;;
26620;SDS011;14253;44.840;10.444;2023-05-29T05:51:12;31.88;;;22.17;;
26620;SDS011;14253;44.840;10.444;2023-05-29T05:53:40;34.17;;;22.58;;
26620;SDS011;14253;44.840;10.444;2023-05-29T05:56:06;34.97;;;24.23;;
26620;SDS011;14253;44.840;10.444;2023-05-29T05:58:33;31.10;;;23.10;;
26620;SDS011;14253;44.840;10.444;2023-05-29T06:01:00;37.30;;;24.60;;
26620;SDS011;14253;44.840;10.444;2023-05-29T06:03:26;38.45;;;24.52;;
26620;SDS011;14253;44.840;10.444;2023-05-29T06:05:57;30.70;;;23.02;;
26620;SDS011;14253;44.840;10.444;2023-05-29T06:08:23;29.00;;;22.27;;
26620;SDS011;14253;44.840;10.444;2023-05-29T06:10:51;28.48;;;21.10;;
26620;SDS011;14253;44.840;10.444;2023-05-29T06:13:17;28.77;;;21.38;;
26620;SDS011;14253;44.840;10.444;2023-05-29T06:15:51;30.35;;;20.35;;
26620;SDS011;14253;44.840;10.444;2023-05-29T06:18:17;22.55;;;18.25;;
26620;SDS011;14253;44.840;10.444;2023-05-29T06:20:44;22.63;;;17.50;;
26620;SDS011;14253;44.840;10.444;2023-05-29T06:23:10;22.33;;;17.15;;
26620;SDS011;14253;44.840;10.444;2023-05-29T06:25:37;21.65;;;16.67;;
26620;SDS011;14253;44.840;10.444;2023-05-29T06:28:05;19.77;;;15.02;;
26620;SDS011;14253;44.840;10.444;2023-05-29T06:30:34;21.20;;;14.90;;
26620;SDS011;14253;44.840;10.444;2023-05-29T06:33:04;21.75;;;14.70;;
26620;SDS011;14253;44.840;10.444;2023-05-29T06:35:31;25.88;;;15.63;;
26620;SDS011;14253;44.840;10.444;2023-05-29T06:37:58;22.95;;;16.33;;
26620;SDS011;14253;44.840;10.444;2023-05-29T06:40:24;20.90;;;14.98;;
26620;SDS011;14253;44.840;10.444;2023-05-29T06:42:51;21.80;;;16.45;;
26620;SDS011;14253;44.840;10.444;2023-05-29T06:45:23;25.33;;;18.35;;
26620;SDS011;14253;44.840;10.444;2023-05-29T06:47:49;23.20;;;17.25;;
26620;SDS011;14253;44.840;10.444;2023-05-29T06:50:15;23.65;;;17.02;;
26620;SDS011;14253;44.840;10.444;2023-05-29T06:52:42;22.60;;;16.70;;
26620;SDS011;14253;44.840;10.444;2023-05-29T06:55:24;23.35;;;16.55;;
26620;SDS011;14253;44.840;10.444;2023-05-29T06:57:52;21.50;;;15.40;;
26620;SDS011;14253;44.840;10.444;2023-05-29T07:00:22;31.80;;;18.35;;
26620;SDS011;14253;44.840;10.444;2023-05-29T07:03:00;26.85;;;17.65;;
26620;SDS011;14253;44.840;10.444;2023-05-29T07:05:27;27.48;;;16.40;;
26620;SDS011;14253;44.840;10.444;2023-05-29T07:07:57;25.77;;;17.75;;
26620;SDS011;14253;44.840;10.444;2023-05-29T07:10:26;23.42;;;17.25;;
26620;SDS011;14253;44.840;10.444;2023-05-29T07:12:54;25.30;;;17.02;;
26620;SDS011;14253;44.840;10.444;2023-05-29T07:15:22;21.60;;;16.85;;
26620;SDS011;14253;44.840;10.444;2023-05-29T07:17:48;22.10;;;15.82;;
26620;SDS011;14253;44.840;10.444;2023-05-29T07:20:18;22.38;;;17.58;;
26620;SDS011;14253;44.840;10.444;2023-05-29T07:22:47;26.80;;;17.75;;
26620;SDS011;14253;44.840;10.444;2023-05-29T07:25:13;25.38;;;17.13;;
26620;SDS011;14253;44.840;10.444;2023-05-29T07:27:39;27.30;;;18.85;;
26620;SDS011;14253;44.840;10.444;2023-05-29T07:30:05;22.50;;;17.10;;
26620;SDS011;14253;44.840;10.444;2023-05-29T07:32:33;26.13;;;18.23;;
26620;SDS011;14253;44.840;10.444;2023-05-29T07:35:00;20.00;;;17.15;;
26620;SDS011;14253;44.840;10.444;2023-05-29T07:37:26;22.77;;;15.63;;
26620;SDS011;14253;44.840;10.444;2023-05-29T07:39:52;20.55;;;15.60;;
26620;SDS011;14253;44.840;10.444;2023-05-29T07:42:38;25.27;;;16.52;;
26620;SDS011;14253;44.840;10.444;2023-05-29T07:45:05;20.75;;;14.63;;
26620;SDS011;14253;44.840;10.444;2023-05-29T07:47:31;18.75;;;14.57;;
26620;SDS011;14253;44.840;10.444;2023-05-29T07:49:57;19.08;;;13.73;;
26620;SDS011;14253;44.840;10.444;2023-05-29T07:52:26;21.17;;;13.93;;
26620;SDS011;14253;44.840;10.444;2023-05-29T07:54:53;18.13;;;13.55;;
26620;SDS011;14253;44.840;10.444;2023-05-29T07:57:21;16.50;;;13.85;;
26620;SDS011;14253;44.840;10.444;2023-05-29T07:59:48;19.00;;;13.90;;
26620;SDS011;14253;44.840;10.444;2023-05-29T08:02:17;18.08;;;13.68;;
26620;SDS011;14253;44.840;10.444;2023-05-29T08:05:03;17.83;;;13.75;;
26620;SDS011;14253;44.840;10.444;2023-05-29T08:07:30;16.58;;;14.32;;
26620;SDS011;14253;44.840;10.444;2023-05-29T08:09:57;22.00;;;14.90;;
26620;SDS011;14253;44.840;10.444;2023-05-29T08:12:24;21.80;;;14.13;;
26620;SDS011;14253;44.840;10.444;2023-05-29T08:14:53;19.27;;;14.57;;
26620;SDS011;14253;44.840;10.444;2023-05-29T08:17:19;15.13;;;13.25;;
26620;SDS011;14253;44.840;10.444;2023-05-29T08:19:45;16.50;;;13.23;;
26620;SDS011;14253;44.840;10.444;2023-05-29T08:22:12;18.48;;;13.93;;
26620;SDS011;14253;44.840;10.444;2023-05-29T08:24:40;16.48;;;12.45;;
26620;SDS011;14253;44.840;10.444;2023-05-29T08:27:06;18.58;;;13.57;;
26620;SDS011;14253;44.840;10.444;2023-05-29T08:29:32;20.92;;;13.48;;
26620;SDS011;14253;44.840;10.444;2023-05-29T08:31:58;18.60;;;13.77;;
26620;SDS011;14253;44.840;10.444;2023-05-29T08:34:24;18.40;;;12.30;;
26620;SDS011;14253;44.840;10.444;2023-05-29T08:36:50;19.77;;;14.10;;
26620;SDS011;14253;44.840;10.444;2023-05-29T08:39:16;18.10;;;12.38;;
26620;SDS011;14253;44.840;10.444;2023-05-29T08:42:01;18.40;;;12.18;;
26620;SDS011;14253;44.840;10.444;2023-05-29T08:44:32;14.95;;;10.52;;
26620;SDS011;14253;44.840;10.444;2023-05-29T08:47:02;14.50;;;9.65;;
26620;SDS011;14253;44.840;10.444;2023-05-29T08:49:37;15.43;;;12.90;;
26620;SDS011;14253;44.840;10.444;2023-05-29T08:52:21;16.38;;;12.73;;
26620;SDS011;14253;44.840;10.444;2023-05-29T08:54:49;18.05;;;13.07;;
26620;SDS011;14253;44.840;10.444;2023-05-29T08:57:17;19.02;;;13.27;;
26620;SDS011;14253;44.840;10.444;2023-05-29T08:59:43;17.58;;;12.32;;
26620;SDS011;14253;44.840;10.444;2023-05-29T09:02:14;16.33;;;12.02;;
26620;SDS011;14253;44.840;10.444;2023-05-29T09:04:41;17.85;;;12.35;;
26620;SDS011;14253;44.840;10.444;2023-05-29T09:07:11;18.38;;;11.55;;
26620;SDS011;14253;44.840;10.444;2023-05-29T09:09:37;19.27;;;13.35;;
26620;SDS011;14253;44.840;10.444;2023-05-29T09:12:04;18.65;;;13.25;;
26620;SDS011;14253;44.840;10.444;2023-05-29T09:14:40;22.52;;;13.18;;
26620;SDS011;14253;44.840;10.444;2023-05-29T09:17:08;22.48;;;14.82;;
26620;SDS011;14253;44.840;10.444;2023-05-29T09:19:35;17.00;;;13.10;;
26620;SDS011;14253;44.840;10.444;2023-05-29T09:22:03;19.80;;;15.98;;
26620;SDS011;14253;44.840;10.444;2023-05-29T09:24:34;19.48;;;16.27;;
26620;SDS011;14253;44.840;10.444;2023-05-29T09:27:01;22.52;;;13.95;;
26620;SDS011;14253;44.840;10.444;2023-05-29T09:29:32;20.27;;;12.50;;
26620;SDS011;14253;44.840;10.444;2023-05-29T09:32:03;23.48;;;17.27;;
26620;SDS011;14253;44.840;10.444;2023-05-29T09:34:42;20.65;;;15.55;;
26620;SDS011;14253;44.840;10.444;2023-05-29T09:37:09;23.77;;;17.33;;
26620;SDS011;14253;44.840;10.444;2023-05-29T09:42:14;18.60;;;14.90;;
26620;SDS011;14253;44.840;10.444;2023-05-29T09:44:41;19.75;;;15.55;;
26620;SDS011;14253;44.840;10.444;2023-05-29T09:47:08;25.20;;;16.00;;
26620;SDS011;14253;44.840;10.444;2023-05-29T09:49:35;20.13;;;14.40;;
26620;SDS011;14253;44.840;10.444;2023-05-29T09:52:06;18.98;;;14.20;;
26620;SDS011;14253;44.840;10.444;2023-05-29T09:54:34;15.30;;;12.98;;
26620;SDS011;14253;44.840;10.444;2023-05-29T09:57:01;21.67;;;14.05;;
26620;SDS011;14253;44.840;10.444;2023-05-29T09:59:30;17.13;;;14.05;;
26620;SDS011;14253;44.840;10.444;2023-05-29T10:02:01;19.30;;;13.43;;
26620;SDS011;14253;44.840;10.444;2023-05-29T10:04:32;15.07;;;12.60;;
26620;SDS011;14253;44.840;10.444;2023-05-29T10:07:05;15.68;;;12.30;;
26620;SDS011;14253;44.840;10.444;2023-05-29T10:09:38;16.80;;;12.32;;
26620;SDS011;14253;44.840;10.444;2023-05-29T10:12:11;20.05;;;12.82;;
26620;SDS011;14253;44.840;10.444;2023-05-29T10:14:38;15.35;;;11.57;;
26620;SDS011;14253;44.840;10.444;2023-05-29T10:17:07;14.27;;;10.75;;
26620;SDS011;14253;44.840;10.444;2023-05-29T10:19:38;15.32;;;12.27;;
26620;SDS011;14253;44.840;10.444;2023-05-29T10:22:04;20.13;;;12.35;;
26620;SDS011;14253;44.840;10.444;2023-05-29T10:24:31;18.25;;;12.75;;
26620;SDS011;14253;44.840;10.444;2023-05-29T10:26:58;17.58;;;11.70;;
26620;SDS011;14253;44.840;10.444;2023-05-29T10:34:48;15.40;;;12.20;;
26620;SDS011;14253;44.840;10.444;2023-05-29T10:37:33;22.10;;;13.45;;
26620;SDS011;14253;44.840;10.444;2023-05-29T10:40:03;19.38;;;11.90;;
26620;SDS011;14253;44.840;10.444;2023-05-29T10:42:46;16.55;;;13.10;;
26620;SDS011;14253;44.840;10.444;2023-05-29T10:46:00;14.38;;;12.25;;
26620;SDS011;14253;44.840;10.444;2023-05-29T10:50:36;22.40;;;12.32;;
26620;SDS011;14253;44.840;10.444;2023-05-29T10:53:06;16.42;;;10.18;;
26620;SDS011;14253;44.840;10.444;2023-05-29T10:55:35;15.40;;;11.57;;
26620;SDS011;14253;44.840;10.444;2023-05-29T10:58:07;18.52;;;12.90;;
26620;SDS011;14253;44.840;10.444;2023-05-29T11:00:41;15.35;;;11.70;;
26620;SDS011;14253;44.840;10.444;2023-05-29T11:03:08;17.83;;;13.43;;
26620;SDS011;14253;44.840;10.444;2023-05-29T11:05:35;20.40;;;13.00;;
26620;SDS011;14253;44.840;10.444;2023-05-29T11:08:42;13.60;;;10.85;;
26620;SDS011;14253;44.840;10.444;2023-05-29T11:11:16;18.35;;;12.25;;
26620;SDS011;14253;44.840;10.444;2023-05-29T11:14:06;13.43;;;10.32;;
26620;SDS011;14253;44.840;10.444;2023-05-29T11:18:59;17.58;;;11.20;;
26620;SDS011;14253;44.840;10.444;2023-05-29T11:26:53;14.60;;;10.52;;
26620;SDS011;14253;44.840;10.444;2023-05-29T11:29:24;14.85;;;11.30;;
26620;SDS011;14253;44.840;10.444;2023-05-29T11:32:01;14.70;;;10.15;;
26620;SDS011;14253;44.840;10.444;2023-05-29T11:34:28;12.80;;;10.00;;
26620;SDS011;14253;44.840;10.444;2023-05-29T11:37:02;13.63;;;9.63;;
26620;SDS011;14253;44.840;10.444;2023-05-29T11:39:28;16.80;;;10.27;;
26620;SDS011;14253;44.840;10.444;2023-05-29T11:41:56;15.02;;;10.40;;
26620;SDS011;14253;44.840;10.444;2023-05-29T11:44:24;14.93;;;9.35;;
26620;SDS011;14253;44.840;10.444;2023-05-29T11:47:01;13.85;;;9.27;;
26620;SDS011;14253;44.840;10.444;2023-05-29T11:49:31;20.15;;;9.65;;
26620;SDS011;14253;44.840;10.444;2023-05-29T11:52:09;14.30;;;8.43;;
26620;SDS011;14253;44.840;10.444;2023-05-29T11:54:36;15.50;;;8.18;;
26620;SDS011;14253;44.840;10.444;2023-05-29T11:57:02;10.95;;;8.18;;
26620;SDS011;14253;44.840;10.444;2023-05-29T11:59:31;10.77;;;8.13;;
26620;SDS011;14253;44.840;10.444;2023-05-29T12:02:04;13.05;;;8.63;;
26620;SDS011;14253;44.840;10.444;2023-05-29T12:04:30;10.43;;;7.70;;
26620;SDS011;14253;44.840;10.444;2023-05-29T12:06:56;12.48;;;7.53;;
26620;SDS011;14253;44.840;10.444;2023-05-29T12:09:26;12.02;;;7.72;;
26620;SDS011;14253;44.840;10.444;2023-05-29T12:14:19;13.00;;;7.40;;
26620;SDS011;14253;44.840;10.444;2023-05-29T12:16:46;12.52;;;7.60;;
26620;SDS011;14253;44.840;10.444;2023-05-29T12:19:14;14.02;;;7.53;;
26620;SDS011;14253;44.840;10.444;2023-05-29T12:21:41;11.07;;;7.90;;
26620;SDS011;14253;44.840;10.444;2023-05-29T12:24:08;11.60;;;8.40;;
26620;SDS011;14253;44.840;10.444;2023-05-29T12:26:35;13.65;;;8.35;;
26620;SDS011;14253;44.840;10.444;2023-05-29T12:29:04;13.80;;;8.07;;
26620;SDS011;14253;44.840;10.444;2023-05-29T12:31:31;11.82;;;7.80;;
26620;SDS011;14253;44.840;10.444;2023-05-29T12:34:02;14.13;;;8.10;;
26620;SDS011;14253;44.840;10.444;2023-05-29T12:36:40;12.77;;;8.50;;
26620;SDS011;14253;44.840;10.444;2023-05-29T12:39:08;15.30;;;7.97;;
26620;SDS011;14253;44.840;10.444;2023-05-29T12:41:35;13.60;;;7.55;;
26620;SDS011;14253;44.840;10.444;2023-05-29T12:44:03;12.40;;;6.82;;
26620;SDS011;14253;44.840;10.444;2023-05-29T12:46:35;9.50;;;5.70;;
26620;SDS011;14253;44.840;10.444;2023-05-29T12:49:15;14.55;;;7.05;;
26620;SDS011;14253;44.840;10.444;2023-05-29T12:51:44;14.93;;;7.28;;
26620;SDS011;14253;44.840;10.444;2023-05-29T12:54:14;17.20;;;6.28;;
26620;SDS011;14253;44.840;10.444;2023-05-29T12:56:41;9.43;;;5.80;;
26620;SDS011;14253;44.840;10.444;2023-05-29T12:59:08;11.43;;;6.55;;
26620;SDS011;14253;44.840;10.444;2023-05-29T13:01:38;11.45;;;7.25;;
26620;SDS011;14253;44.840;10.444;2023-05-29T13:04:04;8.98;;;6.15;;
26620;SDS011;14253;44.840;10.444;2023-05-29T13:06:34;8.75;;;6.30;;
26620;SDS011;14253;44.840;10.444;2023-05-29T13:09:02;13.35;;;5.68;;
26620;SDS011;14253;44.840;10.444;2023-05-29T13:11:28;9.85;;;5.75;;
26620;SDS011;14253;44.840;10.444;2023-05-29T13:13:54;7.13;;;5.28;;
26620;SDS011;14253;44.840;10.444;2023-05-29T13:16:20;8.48;;;5.63;;
26620;SDS011;14253;44.840;10.444;2023-05-29T13:18:46;11.43;;;6.03;;
26620;SDS011;14253;44.840;10.444;2023-05-29T13:21:12;13.95;;;5.82;;
26620;SDS011;14253;44.840;10.444;2023-05-29T13:23:38;7.78;;;5.13;;
26620;SDS011;14253;44.840;10.444;2023-05-29T13:26:04;10.55;;;5.55;;
26620;SDS011;14253;44.840;10.444;2023-05-29T13:28:31;8.52;;;4.88;;
26620;SDS011;14253;44.840;10.444;2023-05-29T13:30:58;9.50;;;5.18;;
26620;SDS011;14253;44.840;10.444;2023-05-29T13:33:24;10.73;;;5.05;;
26620;SDS011;14253;44.840;10.444;2023-05-29T13:35:50;7.75;;;5.05;;
26620;SDS011;14253;44.840;10.444;2023-05-29T13:38:16;12.85;;;5.38;;
26620;SDS011;14253;44.840;10.444;2023-05-29T13:40:42;9.20;;;4.88;;
26620;SDS011;14253;44.840;10.444;2023-05-29T13:43:07;7.85;;;5.60;;
26620;SDS011;14253;44.840;10.444;2023-05-29T13:45:37;10.05;;;6.00;;
26620;SDS011;14253;44.840;10.444;2023-05-29T13:48:05;9.80;;;5.05;;
26620;SDS011;14253;44.840;10.444;2023-05-29T13:50:31;11.00;;;5.32;;
26620;SDS011;14253;44.840;10.444;2023-05-29T13:52:57;9.27;;;5.40;;
26620;SDS011;14253;44.840;10.444;2023-05-29T13:55:23;10.73;;;5.35;;
26620;SDS011;14253;44.840;10.444;2023-05-29T13:57:49;7.57;;;5.05;;
26620;SDS011;14253;44.840;10.444;2023-05-29T14:00:15;8.98;;;4.47;;
26620;SDS011;14253;44.840;10.444;2023-05-29T14:02:42;8.98;;;5.20;;
26620;SDS011;14253;44.840;10.444;2023-05-29T14:05:08;8.45;;;5.20;;
26620;SDS011;14253;44.840;10.444;2023-05-29T14:07:36;10.75;;;5.35;;
26620;SDS011;14253;44.840;10.444;2023-05-29T14:10:02;10.63;;;5.03;;
26620;SDS011;14253;44.840;10.444;2023-05-29T14:12:28;6.60;;;4.68;;
26620;SDS011;14253;44.840;10.444;2023-05-29T14:14:54;10.40;;;5.47;;
26620;SDS011;14253;44.840;10.444;2023-05-29T14:17:20;6.90;;;4.95;;
26620;SDS011;14253;44.840;10.444;2023-05-29T14:19:46;7.47;;;5.53;;
26620;SDS011;14253;44.840;10.444;2023-05-29T14:22:13;12.63;;;4.90;;
26620;SDS011;14253;44.840;10.444;2023-05-29T14:24:39;10.27;;;5.00;;
26620;SDS011;14253;44.840;10.444;2023-05-29T14:27:05;10.10;;;5.18;;
26620;SDS011;14253;44.840;10.444;2023-05-29T14:29:31;9.05;;;5.95;;
26620;SDS011;14253;44.840;10.444;2023-05-29T14:31:57;6.95;;;4.55;;
26620;SDS011;14253;44.840;10.444;2023-05-29T14:34:23;10.32;;;4.88;;
26620;SDS011;14253;44.840;10.444;2023-05-29T14:36:49;10.45;;;5.47;;
26620;SDS011;14253;44.840;10.444;2023-05-29T14:39:15;5.90;;;4.65;;
26620;SDS011;14253;44.840;10.444;2023-05-29T14:41:41;7.97;;;5.55;;
26620;SDS011;14253;44.840;10.444;2023-05-29T14:44:07;8.25;;;5.35;;
26620;SDS011;14253;44.840;10.444;2023-05-29T14:46:33;7.95;;;4.72;;